Flight Track Log - Related Links

Times and Time Zones

All times are in EDT time to prevent confusion due to time zone crossing. See the SWA580 flight status page for this flight to view local times or setup timezone preferences in your user account.

Time Position Orientation Groundspeed Altitude Reporting Facility
EDT Latitude Longitude Course Direction KTS MPH feet Rate Location/Type
Mon 05:05:16 PM 38.7172 -90.2558 109° East 171 197 2,500  Level FAA TRACON SMA TRACON (SMA)
Mon 05:05:37 PM 38.7064 -90.2392 130° Southeast 193 222 3,600 2,700 Climbing FAA TRACON SMA TRACON (SMA)
Mon 05:05:56 PM 38.6925 -90.2256 143° Southeast 208 239 4,300 2,100 Climbing FAA TRACON SMA TRACON (SMA)
Mon 05:06:17 PM 38.6672 -90.2253 180° South 237 273 5,000 2,714 Climbing FAA TRACON SMA TRACON (SMA)
Mon 05:06:38 PM 38.6464 -90.2325 195° South 250 288 6,200 3,077 Climbing FAA TRACON SMA TRACON (SMA)
Mon 05:06:56 PM 38.6261 -90.2422 201° Southwest 254 292 7,000 3,538 Climbing FAA TRACON SMA TRACON (SMA)
Mon 05:07:17 PM 38.6078 -90.2597 217° Southwest 264 304 8,500 4,650 Climbing FAA TRACON SMA TRACON (SMA)
Mon 05:07:36 PM 38.5850 -90.2825 218° Southwest 268 308 10,100 3,538 Climbing FAA TRACON SMA TRACON (SMA)
Mon 05:07:56 PM 38.5661 -90.3019 219° Southwest 279 321 10,800 1,857 Climbing FAA TRACON SMA TRACON (SMA)
Mon 05:08:18 PM 38.5394 -90.3306 220° Southwest 317 365 11,400 2,634 Climbing FAA TRACON SMA TRACON (SMA)
Mon 05:08:37 PM 38.5164 -90.3542 219° Southwest 341 392 12,600 3,692 Climbing FAA TRACON SMA TRACON (SMA)
Mon 05:08:57 PM 38.4933 -90.3781 219° Southwest 348 400 13,800 3,450 Climbing FAA TRACON SMA TRACON (SMA)
Mon 05:09:17 PM 38.4697 -90.4025 219° Southwest 353 406 14,900 3,750 Climbing FAA TRACON SMA TRACON (SMA)
Mon 05:09:37 PM 38.4397 -90.4347 220° Southwest 360 414 16,300 3,450 Climbing FAA TRACON SMA TRACON (SMA)
Mon 05:09:57 PM 38.4153 -90.4600 219° Southwest 367 422 17,200 2,550 Climbing FAA TRACON SMA TRACON (SMA)
Mon 05:10:17 PM 38.3903 -90.4869 220° Southwest 377 434 18,000 2,850 Climbing FAA TRACON SMA TRACON (SMA)
Mon 05:10:37 PM 38.3578 -90.5200 219° Southwest 387 445 19,100 2,927 Climbing FAA TRACON SMA TRACON (SMA)
Mon 05:10:58 PM 38.3319 -90.5475 220° Southwest 394 453 20,000 2,850 Climbing FAA TRACON SMA TRACON (SMA)
Mon 05:11:17 PM 38.3050 -90.5750 219° Southwest 399 459 21,000 3,316 Climbing FAA TRACON SMA TRACON (SMA)
Mon 05:11:36 PM 38.2717 -90.6103 220° Southwest 404 465 22,100 3,150 Climbing FAA TRACON SMA TRACON (SMA)
Mon 05:11:57 PM 38.2450 -90.6394 221° Southwest 408 470 23,100 2,634 Climbing FAA TRACON SMA TRACON (SMA)
Mon 05:12:17 PM 38.2175 -90.6672 218° Southwest 410 472 23,900 2,700 Climbing FAA TRACON SMA TRACON (SMA)
Mon 05:12:37 PM 38.1825 -90.7025 218° Southwest 415 478 24,900 2,615 Climbing FAA TRACON SMA TRACON (SMA)
Mon 05:12:56 PM 38.1511 -90.7253 210° Southwest 421 484 25,600 2,154 Climbing FAA TRACON SMA TRACON (SMA)
Mon 05:13:16 PM 38.1172 -90.7442 204° Southwest 429 494 26,300 2,049 Climbing FAA TRACON SMA TRACON (SMA)
Mon 05:13:37 PM 38.0728 -90.7628 198° South 436 502 27,000 1,950 Climbing FAA TRACON SMA TRACON (SMA)
Mon 05:13:56 PM 38.0353 -90.7744 194° South 444 511 27,600 1,846 Climbing FAA TRACON SMA TRACON (SMA)
Mon 05:14:16 PM 37.9983 -90.7897 198° South 450 518 28,200 2,195 Climbing FAA TRACON SMA TRACON (SMA)
Mon 05:14:37 PM 37.9525 -90.8097 199° South 453 521 29,100 2,488 Climbing FAA TRACON SMA TRACON (SMA)
Mon 05:14:57 PM 37.9158 -90.8253 199° South 453 521 29,900 2,250 Climbing FAA TRACON SMA TRACON (SMA)
Mon 05:15:17 PM 37.8792 -90.8406 198° South 451 519 30,600 2,488 Climbing FAA TRACON SMA TRACON (SMA)
Mon 05:15:38 PM 37.8342 -90.8600 199° South 448 516 31,600 1,929 Climbing FAA TRACON SMA TRACON (SMA)
Mon 05:16:13 PM 37.7956 -90.9253 233° Southwest 449 517 32,400 1,455 Climbing Kansas City Center
Mon 05:17:17 PM 37.6539 -90.9817 197° South 446 513 34,000 1,440 Climbing Kansas City Center
Mon 05:18:18 PM 37.5356 -91.0292 198° South 447 514 35,400 1,525 Climbing Kansas City Center
Mon 05:19:19 PM 37.4200 -91.0789 199° South 443 510 37,100 1,452 Climbing Kansas City Center
Mon 05:20:22 PM 37.2997 -91.1294 198° South 444 511 38,400 1,161 Climbing Kansas City Center
Mon 05:21:23 PM 37.1808 -91.1792 198° South 446 513 39,500 774 Climbing Kansas City Center
Mon 05:22:26 PM 37.0603 -91.2294 198° South 450 518 40,000 242 Climbing Kansas City Center
Mon 05:23:27 PM 36.9156 -91.2875 198° South 452 520 40,000  Level Kansas City Center
Mon 05:24:31 PM 36.7931 -91.3381 198° South 454 522 40,000  Level Kansas City Center
Mon 05:25:34 PM 36.6692 -91.3917 199° South 468 539 40,000  Level Memphis Center
Mon 05:26:34 PM 36.5458 -91.4417 198° South 468 539 40,000  Level Memphis Center
Mon 05:27:34 PM 36.4203 -91.4942 199° South 468 539 40,000  Level Memphis Center
Mon 05:28:34 PM 36.2989 -91.5417 198° South 468 539 40,000  Level Memphis Center
Mon 05:29:34 PM 36.1797 -91.5911 199° South 463 533 40,000  Level Memphis Center
Mon 05:30:34 PM 36.0583 -91.6381 197° South 469 540 40,000  Level Memphis Center
Mon 05:31:34 PM 35.9306 -91.6900 198° South 463 533 40,000  Level Memphis Center
Mon 05:32:34 PM 35.8111 -91.7367 198° South 458 527 40,000  Level Memphis Center
Mon 05:33:34 PM 35.6897 -91.7858 198° South 458 527 40,000  Level Memphis Center
Mon 05:34:34 PM 35.5703 -91.8297 197° South 458 527 40,000  Level Memphis Center
Mon 05:35:34 PM 35.4550 -91.8761 198° South 453 521 40,000  Level Memphis Center
Mon 05:36:34 PM 35.3356 -91.9225 198° South 447 514 40,000  Level Memphis Center
Mon 05:37:34 PM 35.2181 -91.9711 199° South 447 514 40,000  Level Memphis Center
Mon 05:38:34 PM 35.1008 -92.0144 197° South 447 514 40,000  Level Memphis Center
Mon 05:39:34 PM 34.9875 -92.0603 198° South 441 507 40,000  Level Memphis Center
Mon 05:40:34 PM 34.8681 -92.1036 197° South 446 513 40,000  Level Memphis Center
Mon 05:41:34 PM 34.7525 -92.1492 198° South 446 513 40,000  Level Memphis Center
Mon 05:42:34 PM 34.6311 -92.1819 193° South 446 513 40,000  Level Memphis Center
Mon 05:43:34 PM 34.5306 -92.2025 190° South 446 513 40,000  Level Memphis Center
Mon 05:45:30 PM 34.2800 -92.2514 189° South 438 504 40,000  Level Fort Worth Center
Mon 05:46:31 PM 34.1475 -92.2792 190° South 438 504 40,000  Level Fort Worth Center
Mon 05:47:31 PM 34.0233 -92.3017 189° South 448 516 40,000  Level Fort Worth Center
Mon 05:48:31 PM 33.8989 -92.3214 187° South 448 516 40,000  Level Fort Worth Center
Mon 05:49:31 PM 33.7769 -92.3461 190° South 448 516 40,000  Level Fort Worth Center
Mon 05:50:31 PM 33.6589 -92.3678 189° South 441 507 40,000  Level Fort Worth Center
Mon 05:51:31 PM 33.5386 -92.3897 189° South 441 507 40,000 -300 Level Fort Worth Center
Mon 05:52:31 PM 33.4183 -92.4114 189° South 441 507 39,400 -1,000 Descending Fort Worth Center
Mon 05:53:31 PM 33.2900 -92.4336 188° South 448 516 38,000 -706 Descending Fort Worth Center
Mon 05:54:30 PM 33.1594 -92.4558 188° South 470 541 38,000  Level Fort Worth Center
Mon 05:55:31 PM 33.0289 -92.4806 189° South 476 548 38,000  Level Fort Worth Center
Mon 05:57:05 PM 32.8431 -92.5181 190° South 473 544 38,000  Level Houston Center
Mon 05:58:07 PM 32.6881 -92.5475 189° South 471 542 38,000  Level Houston Center
Mon 05:59:09 PM 32.5858 -92.6042 205° Southwest 453 521 38,000  Level Houston Center
Mon 06:00:11 PM 32.4881 -92.7064 221° Southwest 435 501 38,000  Level Houston Center
Mon 06:01:13 PM 32.3939 -92.7933 218° Southwest 430 495 38,000  Level Houston Center
Mon 06:02:15 PM 32.3003 -92.8822 219° Southwest 432 497 38,000  Level Houston Center
Mon 06:03:17 PM 32.1875 -92.9864 218° Southwest 431 496 38,000  Level Houston Center
Mon 06:04:19 PM 32.0944 -93.0725 218° Southwest 427 491 38,000  Level Houston Center
Mon 06:05:21 PM 32.0036 -93.1542 217° Southwest 419 482 38,000  Level Houston Center
Mon 06:06:23 PM 31.9106 -93.2394 218° Southwest 424 488 38,000  Level Houston Center
Mon 06:07:25 PM 31.8203 -93.3236 218° Southwest 420 483 38,000  Level Houston Center
Mon 06:08:27 PM 31.7289 -93.4061 218° Southwest 417 480 38,000  Level Houston Center
Mon 06:09:29 PM 31.6200 -93.5064 218° Southwest 417 480 38,000  Level Houston Center
Mon 06:10:31 PM 31.5236 -93.5931 217° Southwest 417 480 38,000  Level Houston Center
Mon 06:11:33 PM 31.4344 -93.6811 220° Southwest 418 481 38,000  Level Houston Center
Mon 06:12:35 PM 31.3478 -93.7703 221° Southwest 414 476 38,000  Level Houston Center
Mon 06:13:37 PM 31.2536 -93.8656 221° Southwest 416 479 38,000  Level Houston Center
Mon 06:14:39 PM 31.1706 -93.9481 220° Southwest 417 480 38,000  Level Houston Center
Mon 06:15:41 PM 31.0831 -94.0367 221° Southwest 414 476 38,000 -774 Level Houston Center
Mon 06:16:43 PM 30.9956 -94.1239 221° Southwest 414 476 36,400 -2,758 Descending Houston Center
Mon 06:17:45 PM 30.8908 -94.2292 221° Southwest 411 473 32,300 -3,774 Descending Houston Center
Mon 06:18:47 PM 30.7997 -94.3203 221° Southwest 423 487 28,600 -3,339 Descending Houston Center
Mon 06:19:49 PM 30.7081 -94.4117 221° Southwest 432 497 25,400 -3,073 Descending Houston Center
Mon 06:20:50 PM 30.6156 -94.5064 221° Southwest 433 498 22,300 -2,903 Descending Houston Center
Mon 06:21:53 PM 30.5283 -94.5903 220° Southwest 416 479 19,400 -2,951 Descending Houston Center
Mon 06:22:52 PM 30.4372 -94.6800 220° Southwest 391 450 16,300 -2,922 Descending Houston Center
Mon 06:23:48 PM 30.3622 -94.7547 221° Southwest 380 437 13,800 -1,659 Descending Houston Center
Mon 06:24:55 PM 30.2864 -94.8394 224° Southwest 324 373 12,900 -891 Descending Houston Center
Mon 06:25:56 PM 30.2297 -94.9289 234° Southwest 326 375 11,900 -1,033 Descending Houston Center
Mon 06:26:57 PM 30.1747 -95.0133 233° Southwest 330 380 10,800 -974 Descending Houston Center
Mon 06:27:53 PM 30.1178 -95.0783 225° Southwest 304 350 10,000 -410 Descending Houston Center
Mon 06:28:54 PM 30.0308 -95.1156 200° South 340 391 10,000 -341 Level Houston Center
Mon 06:29:56 PM 29.9461 -95.1525 201° Southwest 303 349 9,300 -878 Descending Houston Center
Mon 06:30:57 PM 29.8639 -95.1697 190° South 302 348 8,200 -703 Descending Houston Center
Mon 06:32:04 PM 29.7711 -95.1908 191° South 289 333 7,800 -844 Descending Houston Center
Mon 06:33:05 PM 29.6953 -95.2097 192° South 279 321 6,400 -857 Descending Houston Center
Mon 06:34:17 PM 29.6122 -95.2281 191° South 260 299 5,900 -224 Descending Houston Center
Mon 06:35:19 PM 29.5567 -95.2450 195° South 220 253 5,900 -283 Level Houston Center
Mon 06:36:03 PM 29.5236 -95.2833 225° Southwest 202 232 5,400 -677 Descending Houston Center
Mon 06:36:21 PM 29.5156 -95.2894 213° Southwest 204 235 5,200 -984 Descending Houston Center
Mon 06:37:04 PM 29.5178 -95.3344 273° West 191 220 4,400 -1,065 Descending Houston Center
Mon 06:37:23 PM 29.5222 -95.3422 303° West 200 230 4,100 -1,935 Descending Houston Center
Mon 06:38:06 PM 29.5625 -95.3628 336° Northwest 191 220 2,400 -1,742 Descending Houston Center
Mon 06:38:25 PM 29.5686 -95.3589 29° Northeast 200 230 2,300 -1,180 Descending Houston Center
Mon 06:39:07 PM 29.5975 -95.3322 39° Northeast 146 168 1,200 -1,355 Descending Houston Center
Mon 06:39:27 PM 29.6069 -95.3208 46° Northeast 165 190 900 -774 Descending Houston Center
Mon 06:40:09 PM 29.6258 -95.3000 44° Northeast 142 163 400 -787 Descending Houston Center
Mon 06:40:28 PM 29.6353 -95.2903 42° Northeast 149 171 100 -947 Descending Houston Center

Login

Don't have an account? Register now (free) for customized features, flight alerts, and more!